sensor_id;sensor_type;location;lat;lon;timestamp;P1;durP1;ratioP1;P2;durP2;ratioP2
47167;SDS011;32931;47.778;17.806;2023-02-15T00:01:45;61.10;;;35.75;;
47167;SDS011;32931;47.778;17.806;2023-02-15T00:04:17;61.80;;;36.08;;
47167;SDS011;32931;47.778;17.806;2023-02-15T00:06:45;61.30;;;35.35;;
47167;SDS011;32931;47.778;17.806;2023-02-15T00:09:12;68.65;;;35.72;;
47167;SDS011;32931;47.778;17.806;2023-02-15T00:11:38;65.60;;;35.78;;
47167;SDS011;32931;47.778;17.806;2023-02-15T00:16:32;60.80;;;34.53;;
47167;SDS011;32931;47.778;17.806;2023-02-15T00:18:58;56.78;;;34.08;;
47167;SDS011;32931;47.778;17.806;2023-02-15T00:21:30;59.83;;;34.95;;
47167;SDS011;32931;47.778;17.806;2023-02-15T00:23:58;65.88;;;35.50;;
47167;SDS011;32931;47.778;17.806;2023-02-15T00:26:26;56.90;;;33.85;;
47167;SDS011;32931;47.778;17.806;2023-02-15T00:28:53;62.90;;;34.65;;
47167;SDS011;32931;47.778;17.806;2023-02-15T00:31:20;64.60;;;34.35;;
47167;SDS011;32931;47.778;17.806;2023-02-15T00:33:46;61.53;;;35.10;;
47167;SDS011;32931;47.778;17.806;2023-02-15T00:36:13;54.65;;;32.28;;
47167;SDS011;32931;47.778;17.806;2023-02-15T00:38:39;64.38;;;34.60;;
47167;SDS011;32931;47.778;17.806;2023-02-15T00:41:06;60.72;;;34.92;;
47167;SDS011;32931;47.778;17.806;2023-02-15T00:43:33;62.55;;;35.40;;
47167;SDS011;32931;47.778;17.806;2023-02-15T00:46:00;57.83;;;34.78;;
47167;SDS011;32931;47.778;17.806;2023-02-15T00:48:27;66.07;;;35.03;;
47167;SDS011;32931;47.778;17.806;2023-02-15T00:50:54;67.88;;;36.13;;
47167;SDS011;32931;47.778;17.806;2023-02-15T00:53:22;68.03;;;34.78;;
47167;SDS011;32931;47.778;17.806;2023-02-15T00:55:49;59.78;;;34.75;;
47167;SDS011;32931;47.778;17.806;2023-02-15T00:58:15;65.32;;;35.25;;
47167;SDS011;32931;47.778;17.806;2023-02-15T01:00:42;61.30;;;34.70;;
47167;SDS011;32931;47.778;17.806;2023-02-15T01:03:10;62.75;;;34.55;;
47167;SDS011;32931;47.778;17.806;2023-02-15T01:05:37;62.80;;;36.55;;
47167;SDS011;32931;47.778;17.806;2023-02-15T01:08:03;66.28;;;35.03;;
47167;SDS011;32931;47.778;17.806;2023-02-15T01:10:30;67.38;;;36.95;;
47167;SDS011;32931;47.778;17.806;2023-02-15T01:12:57;65.75;;;37.70;;
47167;SDS011;32931;47.778;17.806;2023-02-15T01:15:23;65.47;;;36.67;;
47167;SDS011;32931;47.778;17.806;2023-02-15T01:17:49;65.65;;;36.95;;
47167;SDS011;32931;47.778;17.806;2023-02-15T01:20:28;66.82;;;36.00;;
47167;SDS011;32931;47.778;17.806;2023-02-15T01:22:55;70.18;;;37.60;;
47167;SDS011;32931;47.778;17.806;2023-02-15T01:25:23;69.57;;;38.75;;
47167;SDS011;32931;47.778;17.806;2023-02-15T01:27:49;62.55;;;36.58;;
47167;SDS011;32931;47.778;17.806;2023-02-15T01:30:16;76.63;;;38.95;;
47167;SDS011;32931;47.778;17.806;2023-02-15T01:32:42;69.22;;;36.78;;
47167;SDS011;32931;47.778;17.806;2023-02-15T01:35:09;67.45;;;38.15;;
47167;SDS011;32931;47.778;17.806;2023-02-15T01:37:36;67.88;;;38.55;;
47167;SDS011;32931;47.778;17.806;2023-02-15T01:40:03;74.25;;;37.75;;
47167;SDS011;32931;47.778;17.806;2023-02-15T01:42:32;68.07;;;38.47;;
47167;SDS011;32931;47.778;17.806;2023-02-15T01:44:59;76.40;;;39.15;;
47167;SDS011;32931;47.778;17.806;2023-02-15T01:47:37;76.32;;;41.20;;
47167;SDS011;32931;47.778;17.806;2023-02-15T01:50:11;71.95;;;37.60;;
47167;SDS011;32931;47.778;17.806;2023-02-15T01:55:20;69.97;;;37.30;;
47167;SDS011;32931;47.778;17.806;2023-02-15T01:57:49;75.53;;;40.28;;
47167;SDS011;32931;47.778;17.806;2023-02-15T02:00:16;67.03;;;38.58;;
47167;SDS011;32931;47.778;17.806;2023-02-15T02:02:44;70.53;;;37.85;;
47167;SDS011;32931;47.778;17.806;2023-02-15T02:05:13;70.85;;;39.80;;
47167;SDS011;32931;47.778;17.806;2023-02-15T02:07:43;72.13;;;37.88;;
47167;SDS011;32931;47.778;17.806;2023-02-15T02:10:13;70.43;;;38.22;;
47167;SDS011;32931;47.778;17.806;2023-02-15T02:12:46;66.20;;;37.53;;
47167;SDS011;32931;47.778;17.806;2023-02-15T02:15:14;72.63;;;38.90;;
47167;SDS011;32931;47.778;17.806;2023-02-15T02:28:51;71.82;;;38.42;;
47167;SDS011;32931;47.778;17.806;2023-02-15T02:34:18;70.40;;;36.67;;
47167;SDS011;32931;47.778;17.806;2023-02-15T02:36:55;73.18;;;39.38;;
47167;SDS011;32931;47.778;17.806;2023-02-15T02:42:17;72.45;;;38.63;;
47167;SDS011;32931;47.778;17.806;2023-02-15T02:44:48;73.88;;;38.03;;
47167;SDS011;32931;47.778;17.806;2023-02-15T02:50:22;72.68;;;36.97;;
47167;SDS011;32931;47.778;17.806;2023-02-15T02:52:52;73.03;;;38.78;;
47167;SDS011;32931;47.778;17.806;2023-02-15T02:58:42;73.55;;;40.03;;
47167;SDS011;32931;47.778;17.806;2023-02-15T03:00:46;73.25;;;39.92;;
47167;SDS011;32931;47.778;17.806;2023-02-15T03:03:51;71.57;;;38.07;;
47167;SDS011;32931;47.778;17.806;2023-02-15T03:06:16;78.50;;;38.78;;
47167;SDS011;32931;47.778;17.806;2023-02-15T03:09:10;74.55;;;39.85;;
47167;SDS011;32931;47.778;17.806;2023-02-15T03:11:47;73.22;;;39.28;;
47167;SDS011;32931;47.778;17.806;2023-02-15T03:14:14;79.95;;;41.20;;
47167;SDS011;32931;47.778;17.806;2023-02-15T03:16:43;77.35;;;39.53;;
47167;SDS011;32931;47.778;17.806;2023-02-15T03:19:14;79.70;;;40.67;;
47167;SDS011;32931;47.778;17.806;2023-02-15T03:22:00;74.22;;;40.20;;
47167;SDS011;32931;47.778;17.806;2023-02-15T03:27:05;77.25;;;39.78;;
47167;SDS011;32931;47.778;17.806;2023-02-15T03:29:35;79.18;;;40.35;;
47167;SDS011;32931;47.778;17.806;2023-02-15T03:32:04;84.95;;;42.58;;
47167;SDS011;32931;47.778;17.806;2023-02-15T03:34:32;80.97;;;40.88;;
47167;SDS011;32931;47.778;17.806;2023-02-15T03:37:22;76.45;;;42.13;;
47167;SDS011;32931;47.778;17.806;2023-02-15T03:39:59;76.45;;;41.03;;
47167;SDS011;32931;47.778;17.806;2023-02-15T03:43:07;73.47;;;41.67;;
47167;SDS011;32931;47.778;17.806;2023-02-15T03:45:44;80.50;;;41.08;;
47167;SDS011;32931;47.778;17.806;2023-02-15T03:48:23;86.32;;;44.03;;
47167;SDS011;32931;47.778;17.806;2023-02-15T03:50:54;83.15;;;42.70;;
47167;SDS011;32931;47.778;17.806;2023-02-15T03:53:43;80.38;;;40.78;;
47167;SDS011;32931;47.778;17.806;2023-02-15T03:56:11;78.25;;;40.85;;
47167;SDS011;32931;47.778;17.806;2023-02-15T03:58:38;75.75;;;41.95;;
47167;SDS011;32931;47.778;17.806;2023-02-15T04:01:26;79.13;;;40.55;;
47167;SDS011;32931;47.778;17.806;2023-02-15T04:06:53;71.38;;;38.90;;
47167;SDS011;32931;47.778;17.806;2023-02-15T04:09:19;77.90;;;40.15;;
47167;SDS011;32931;47.778;17.806;2023-02-15T04:12:04;77.00;;;39.53;;
47167;SDS011;32931;47.778;17.806;2023-02-15T04:14:30;78.18;;;39.90;;
47167;SDS011;32931;47.778;17.806;2023-02-15T04:17:15;75.32;;;40.42;;
47167;SDS011;32931;47.778;17.806;2023-02-15T04:19:41;79.55;;;40.55;;
47167;SDS011;32931;47.778;17.806;2023-02-15T04:22:26;75.00;;;37.67;;
47167;SDS011;32931;47.778;17.806;2023-02-15T04:25:10;71.60;;;38.60;;
47167;SDS011;32931;47.778;17.806;2023-02-15T04:27:37;76.93;;;37.80;;
47167;SDS011;32931;47.778;17.806;2023-02-15T04:30:04;75.82;;;39.85;;
47167;SDS011;32931;47.778;17.806;2023-02-15T04:32:31;73.57;;;39.08;;
47167;SDS011;32931;47.778;17.806;2023-02-15T04:34:58;76.35;;;38.80;;
47167;SDS011;32931;47.778;17.806;2023-02-15T04:37:24;68.93;;;38.08;;
47167;SDS011;32931;47.778;17.806;2023-02-15T04:39:50;74.68;;;38.72;;
47167;SDS011;32931;47.778;17.806;2023-02-15T04:42:16;76.75;;;36.78;;
47167;SDS011;32931;47.778;17.806;2023-02-15T04:44:42;69.03;;;34.42;;
47167;SDS011;32931;47.778;17.806;2023-02-15T04:47:09;67.15;;;37.47;;
47167;SDS011;32931;47.778;17.806;2023-02-15T04:49:35;71.43;;;37.25;;
47167;SDS011;32931;47.778;17.806;2023-02-15T04:52:01;78.07;;;39.13;;
47167;SDS011;32931;47.778;17.806;2023-02-15T04:54:28;79.60;;;40.05;;
47167;SDS011;32931;47.778;17.806;2023-02-15T04:56:54;73.72;;;38.08;;
47167;SDS011;32931;47.778;17.806;2023-02-15T04:59:20;78.28;;;38.88;;
47167;SDS011;32931;47.778;17.806;2023-02-15T05:01:46;78.53;;;38.60;;
47167;SDS011;32931;47.778;17.806;2023-02-15T05:04:12;75.47;;;38.97;;
47167;SDS011;32931;47.778;17.806;2023-02-15T05:06:38;74.93;;;38.80;;
47167;SDS011;32931;47.778;17.806;2023-02-15T05:09:05;80.03;;;37.75;;
47167;SDS011;32931;47.778;17.806;2023-02-15T05:11:31;76.90;;;40.05;;
47167;SDS011;32931;47.778;17.806;2023-02-15T05:13:57;74.10;;;38.33;;
47167;SDS011;32931;47.778;17.806;2023-02-15T05:16:24;80.82;;;39.33;;
47167;SDS011;32931;47.778;17.806;2023-02-15T05:18:50;79.32;;;40.45;;
47167;SDS011;32931;47.778;17.806;2023-02-15T05:21:17;75.07;;;39.22;;
47167;SDS011;32931;47.778;17.806;2023-02-15T05:23:43;74.28;;;39.45;;
47167;SDS011;32931;47.778;17.806;2023-02-15T05:26:12;86.28;;;40.60;;
47167;SDS011;32931;47.778;17.806;2023-02-15T05:29:04;84.85;;;38.78;;
47167;SDS011;32931;47.778;17.806;2023-02-15T05:31:31;76.22;;;37.75;;
47167;SDS011;32931;47.778;17.806;2023-02-15T05:33:58;85.70;;;39.65;;
47167;SDS011;32931;47.778;17.806;2023-02-15T05:36:24;79.80;;;38.95;;
47167;SDS011;32931;47.778;17.806;2023-02-15T05:38:50;78.68;;;38.70;;
47167;SDS011;32931;47.778;17.806;2023-02-15T05:41:16;75.75;;;40.50;;
47167;SDS011;32931;47.778;17.806;2023-02-15T05:43:43;87.03;;;41.58;;
47167;SDS011;32931;47.778;17.806;2023-02-15T05:46:09;86.97;;;41.92;;
47167;SDS011;32931;47.778;17.806;2023-02-15T05:48:37;89.82;;;41.85;;
47167;SDS011;32931;47.778;17.806;2023-02-15T05:51:04;82.93;;;43.05;;
47167;SDS011;32931;47.778;17.806;2023-02-15T05:53:34;84.00;;;41.05;;
47167;SDS011;32931;47.778;17.806;2023-02-15T05:56:02;91.32;;;42.85;;
47167;SDS011;32931;47.778;17.806;2023-02-15T05:58:30;83.20;;;41.30;;
47167;SDS011;32931;47.778;17.806;2023-02-15T06:00:58;85.85;;;43.20;;
47167;SDS011;32931;47.778;17.806;2023-02-15T06:03:24;82.43;;;43.17;;
47167;SDS011;32931;47.778;17.806;2023-02-15T06:05:51;91.70;;;46.17;;
47167;SDS011;32931;47.778;17.806;2023-02-15T06:08:18;81.35;;;43.53;;
47167;SDS011;32931;47.778;17.806;2023-02-15T06:10:47;82.25;;;43.45;;
47167;SDS011;32931;47.778;17.806;2023-02-15T06:13:13;91.80;;;45.28;;
47167;SDS011;32931;47.778;17.806;2023-02-15T06:15:39;81.22;;;43.10;;
47167;SDS011;32931;47.778;17.806;2023-02-15T06:18:05;84.82;;;43.90;;
47167;SDS011;32931;47.778;17.806;2023-02-15T06:20:31;86.47;;;44.25;;
47167;SDS011;32931;47.778;17.806;2023-02-15T06:22:58;100.55;;;44.20;;
47167;SDS011;32931;47.778;17.806;2023-02-15T06:25:24;99.78;;;44.33;;
47167;SDS011;32931;47.778;17.806;2023-02-15T06:27:50;82.25;;;42.13;;
47167;SDS011;32931;47.778;17.806;2023-02-15T06:30:16;91.05;;;43.42;;
47167;SDS011;32931;47.778;17.806;2023-02-15T06:32:43;85.32;;;41.58;;
47167;SDS011;32931;47.778;17.806;2023-02-15T06:35:09;89.53;;;43.70;;
47167;SDS011;32931;47.778;17.806;2023-02-15T06:37:35;86.65;;;46.80;;
47167;SDS011;32931;47.778;17.806;2023-02-15T06:40:01;83.38;;;42.92;;
47167;SDS011;32931;47.778;17.806;2023-02-15T06:42:27;89.95;;;44.75;;
47167;SDS011;32931;47.778;17.806;2023-02-15T06:44:53;89.93;;;46.03;;
47167;SDS011;32931;47.778;17.806;2023-02-15T06:47:20;87.70;;;45.10;;
47167;SDS011;32931;47.778;17.806;2023-02-15T06:49:46;91.35;;;45.97;;
47167;SDS011;32931;47.778;17.806;2023-02-15T06:52:12;94.72;;;46.13;;
47167;SDS011;32931;47.778;17.806;2023-02-15T06:54:38;89.72;;;46.17;;
47167;SDS011;32931;47.778;17.806;2023-02-15T06:57:04;86.60;;;45.63;;
47167;SDS011;32931;47.778;17.806;2023-02-15T06:59:30;92.38;;;46.17;;
47167;SDS011;32931;47.778;17.806;2023-02-15T07:01:56;93.03;;;47.00;;
47167;SDS011;32931;47.778;17.806;2023-02-15T07:04:23;88.70;;;44.92;;
47167;SDS011;32931;47.778;17.806;2023-02-15T07:06:49;92.22;;;48.03;;
47167;SDS011;32931;47.778;17.806;2023-02-15T07:09:15;96.28;;;46.42;;
47167;SDS011;32931;47.778;17.806;2023-02-15T07:11:41;96.78;;;47.03;;
47167;SDS011;32931;47.778;17.806;2023-02-15T07:14:26;91.32;;;46.97;;
47167;SDS011;32931;47.778;17.806;2023-02-15T07:16:53;99.75;;;47.28;;
47167;SDS011;32931;47.778;17.806;2023-02-15T07:19:19;89.30;;;47.10;;
47167;SDS011;32931;47.778;17.806;2023-02-15T07:21:45;91.72;;;49.55;;
47167;SDS011;32931;47.778;17.806;2023-02-15T07:24:11;92.15;;;48.17;;
47167;SDS011;32931;47.778;17.806;2023-02-15T07:26:37;92.70;;;49.28;;
47167;SDS011;32931;47.778;17.806;2023-02-15T07:29:03;99.10;;;48.58;;
47167;SDS011;32931;47.778;17.806;2023-02-15T07:31:30;86.70;;;47.90;;
47167;SDS011;32931;47.778;17.806;2023-02-15T07:33:56;95.05;;;49.75;;
47167;SDS011;32931;47.778;17.806;2023-02-15T07:36:22;97.75;;;48.90;;
47167;SDS011;32931;47.778;17.806;2023-02-15T07:38:48;99.05;;;51.50;;
47167;SDS011;32931;47.778;17.806;2023-02-15T07:41:15;101.72;;;51.40;;
47167;SDS011;32931;47.778;17.806;2023-02-15T07:43:42;104.65;;;53.55;;
47167;SDS011;32931;47.778;17.806;2023-02-15T07:46:11;99.50;;;52.00;;
47167;SDS011;32931;47.778;17.806;2023-02-15T07:48:40;98.80;;;51.30;;
47167;SDS011;32931;47.778;17.806;2023-02-15T07:51:08;109.22;;;55.45;;
47167;SDS011;32931;47.778;17.806;2023-02-15T07:53:36;104.68;;;55.88;;
47167;SDS011;32931;47.778;17.806;2023-02-15T07:56:04;106.80;;;55.63;;
47167;SDS011;32931;47.778;17.806;2023-02-15T07:58:34;110.03;;;54.08;;
47167;SDS011;32931;47.778;17.806;2023-02-15T08:01:25;105.13;;;55.20;;
47167;SDS011;32931;47.778;17.806;2023-02-15T08:03:59;105.65;;;53.30;;
47167;SDS011;32931;47.778;17.806;2023-02-15T08:06:26;103.25;;;53.42;;
47167;SDS011;32931;47.778;17.806;2023-02-15T08:08:54;102.22;;;53.78;;
47167;SDS011;32931;47.778;17.806;2023-02-15T08:11:24;97.50;;;51.15;;
47167;SDS011;32931;47.778;17.806;2023-02-15T08:14:03;97.22;;;53.10;;
47167;SDS011;32931;47.778;17.806;2023-02-15T08:19:17;99.15;;;53.90;;
47167;SDS011;32931;47.778;17.806;2023-02-15T08:21:50;91.35;;;47.22;;
47167;SDS011;32931;47.778;17.806;2023-02-15T08:24:25;95.35;;;51.13;;
47167;SDS011;32931;47.778;17.806;2023-02-15T08:26:53;94.25;;;52.63;;
47167;SDS011;32931;47.778;17.806;2023-02-15T08:29:20;102.10;;;54.60;;
47167;SDS011;32931;47.778;17.806;2023-02-15T08:31:48;103.30;;;55.38;;
47167;SDS011;32931;47.778;17.806;2023-02-15T08:34:16;96.47;;;52.58;;
47167;SDS011;32931;47.778;17.806;2023-02-15T08:36:44;91.65;;;51.42;;
47167;SDS011;32931;47.778;17.806;2023-02-15T08:39:11;92.82;;;52.35;;
47167;SDS011;32931;47.778;17.806;2023-02-15T08:41:38;92.68;;;52.10;;
47167;SDS011;32931;47.778;17.806;2023-02-15T08:44:07;92.32;;;52.40;;
47167;SDS011;32931;47.778;17.806;2023-02-15T08:46:34;93.90;;;52.05;;
47167;SDS011;32931;47.778;17.806;2023-02-15T08:49:02;92.32;;;52.33;;
47167;SDS011;32931;47.778;17.806;2023-02-15T08:51:30;94.50;;;52.33;;
47167;SDS011;32931;47.778;17.806;2023-02-15T08:53:58;93.22;;;50.78;;
47167;SDS011;32931;47.778;17.806;2023-02-15T08:56:27;94.03;;;52.53;;
47167;SDS011;32931;47.778;17.806;2023-02-15T08:58:55;93.13;;;52.67;;
47167;SDS011;32931;47.778;17.806;2023-02-15T09:01:23;88.85;;;52.33;;
47167;SDS011;32931;47.778;17.806;2023-02-15T09:03:55;91.60;;;51.78;;
47167;SDS011;32931;47.778;17.806;2023-02-15T09:06:23;91.40;;;51.55;;
47167;SDS011;32931;47.778;17.806;2023-02-15T09:08:50;88.50;;;50.72;;
47167;SDS011;32931;47.778;17.806;2023-02-15T09:11:18;90.78;;;51.53;;
47167;SDS011;32931;47.778;17.806;2023-02-15T09:13:51;95.45;;;52.53;;
47167;SDS011;32931;47.778;17.806;2023-02-15T09:16:24;94.47;;;52.35;;
47167;SDS011;32931;47.778;17.806;2023-02-15T09:18:52;90.03;;;50.30;;
47167;SDS011;32931;47.778;17.806;2023-02-15T09:21:20;89.75;;;52.67;;
47167;SDS011;32931;47.778;17.806;2023-02-15T09:23:48;88.40;;;51.55;;
47167;SDS011;32931;47.778;17.806;2023-02-15T09:26:19;84.60;;;50.33;;
47167;SDS011;32931;47.778;17.806;2023-02-15T09:28:47;81.57;;;47.65;;
47167;SDS011;32931;47.778;17.806;2023-02-15T09:31:18;84.90;;;47.67;;
47167;SDS011;32931;47.778;17.806;2023-02-15T09:33:46;88.15;;;48.83;;
47167;SDS011;32931;47.778;17.806;2023-02-15T09:36:35;81.95;;;47.28;;
47167;SDS011;32931;47.778;17.806;2023-02-15T10:08:48;58.97;;;34.40;;
47167;SDS011;32931;47.778;17.806;2023-02-15T10:12:04;56.75;;;36.42;;
47167;SDS011;32931;47.778;17.806;2023-02-15T10:17:10;65.32;;;38.60;;
47167;SDS011;32931;47.778;17.806;2023-02-15T10:22:51;65.32;;;39.58;;
47167;SDS011;32931;47.778;17.806;2023-02-15T10:28:04;65.18;;;39.95;;
47167;SDS011;32931;47.778;17.806;2023-02-15T10:30:57;61.67;;;39.20;;
47167;SDS011;32931;47.778;17.806;2023-02-15T10:42:11;60.08;;;37.30;;
47167;SDS011;32931;47.778;17.806;2023-02-15T10:47:41;61.20;;;37.95;;
47167;SDS011;32931;47.778;17.806;2023-02-15T11:01:32;60.65;;;38.28;;
47167;SDS011;32931;47.778;17.806;2023-02-15T11:10:11;61.47;;;38.20;;
47167;SDS011;32931;47.778;17.806;2023-02-15T11:12:49;61.92;;;37.17;;
47167;SDS011;32931;47.778;17.806;2023-02-15T11:18:01;56.42;;;35.95;;
47167;SDS011;32931;47.778;17.806;2023-02-15T11:23:36;55.92;;;35.67;;
47167;SDS011;32931;47.778;17.806;2023-02-15T11:26:12;55.40;;;35.25;;
47167;SDS011;32931;47.778;17.806;2023-02-15T11:37:47;57.45;;;34.47;;
47167;SDS011;32931;47.778;17.806;2023-02-15T11:40:43;53.58;;;33.92;;
47167;SDS011;32931;47.778;17.806;2023-02-15T11:43:34;50.80;;;33.75;;
47167;SDS011;32931;47.778;17.806;2023-02-15T11:46:08;52.85;;;33.65;;
47167;SDS011;32931;47.778;17.806;2023-02-15T11:48:37;54.22;;;34.13;;
47167;SDS011;32931;47.778;17.806;2023-02-15T11:51:03;50.25;;;31.92;;
47167;SDS011;32931;47.778;17.806;2023-02-15T11:53:33;53.38;;;33.00;;
47167;SDS011;32931;47.778;17.806;2023-02-15T11:56:03;57.75;;;35.00;;
47167;SDS011;32931;47.778;17.806;2023-02-15T11:58:41;57.45;;;33.30;;
47167;SDS011;32931;47.778;17.806;2023-02-15T12:09:55;56.90;;;33.78;;
47167;SDS011;32931;47.778;17.806;2023-02-15T12:12:37;61.83;;;32.85;;
47167;SDS011;32931;47.778;17.806;2023-02-15T12:15:04;50.70;;;33.70;;
47167;SDS011;32931;47.778;17.806;2023-02-15T12:17:33;51.58;;;33.90;;
47167;SDS011;32931;47.778;17.806;2023-02-15T12:20:22;49.55;;;32.67;;
47167;SDS011;32931;47.778;17.806;2023-02-15T12:22:58;50.38;;;33.25;;
47167;SDS011;32931;47.778;17.806;2023-02-15T12:25:36;54.28;;;34.08;;
47167;SDS011;32931;47.778;17.806;2023-02-15T12:28:16;53.13;;;33.58;;
47167;SDS011;32931;47.778;17.806;2023-02-15T12:31:04;52.85;;;32.35;;
47167;SDS011;32931;47.778;17.806;2023-02-15T12:33:46;52.80;;;33.87;;
47167;SDS011;32931;47.778;17.806;2023-02-15T12:36:15;51.58;;;32.63;;
47167;SDS011;32931;47.778;17.806;2023-02-15T12:41:46;63.30;;;35.20;;
47167;SDS011;32931;47.778;17.806;2023-02-15T12:44:27;51.33;;;32.97;;
47167;SDS011;32931;47.778;17.806;2023-02-15T12:49:33;54.38;;;33.88;;
47167;SDS011;32931;47.778;17.806;2023-02-15T12:52:03;50.20;;;33.20;;
47167;SDS011;32931;47.778;17.806;2023-02-15T12:54:34;54.63;;;34.28;;
47167;SDS011;32931;47.778;17.806;2023-02-15T12:59:58;50.50;;;34.67;;
47167;SDS011;32931;47.778;17.806;2023-02-15T13:02:47;49.92;;;33.55;;
47167;SDS011;32931;47.778;17.806;2023-02-15T13:05:23;50.15;;;33.90;;
47167;SDS011;32931;47.778;17.806;2023-02-15T13:08:10;54.72;;;34.80;;
47167;SDS011;32931;47.778;17.806;2023-02-15T13:10:40;53.47;;;34.95;;
47167;SDS011;32931;47.778;17.806;2023-02-15T13:13:10;56.92;;;33.88;;
47167;SDS011;32931;47.778;17.806;2023-02-15T13:15:44;51.58;;;32.78;;
47167;SDS011;32931;47.778;17.806;2023-02-15T13:18:18;55.88;;;35.47;;
47167;SDS011;32931;47.778;17.806;2023-02-15T13:20:54;53.35;;;34.05;;
47167;SDS011;32931;47.778;17.806;2023-02-15T13:23:27;54.33;;;34.15;;
47167;SDS011;32931;47.778;17.806;2023-02-15T13:25:57;54.45;;;35.05;;
47167;SDS011;32931;47.778;17.806;2023-02-15T13:28:34;53.03;;;35.35;;
47167;SDS011;32931;47.778;17.806;2023-02-15T13:31:12;53.03;;;35.13;;
47167;SDS011;32931;47.778;17.806;2023-02-15T13:33:40;50.57;;;34.10;;
47167;SDS011;32931;47.778;17.806;2023-02-15T14:11:43;54.90;;;34.65;;
47167;SDS011;32931;47.778;17.806;2023-02-15T14:16:48;55.10;;;35.17;;
47167;SDS011;32931;47.778;17.806;2023-02-15T14:22:10;56.78;;;35.65;;
47167;SDS011;32931;47.778;17.806;2023-02-15T14:30:37;57.45;;;36.05;;
47167;SDS011;32931;47.778;17.806;2023-02-15T14:33:28;54.67;;;35.47;;
47167;SDS011;32931;47.778;17.806;2023-02-15T14:35:57;57.50;;;36.63;;
47167;SDS011;32931;47.778;17.806;2023-02-15T14:41:04;58.95;;;37.00;;
47167;SDS011;32931;47.778;17.806;2023-02-15T14:43:46;54.05;;;34.35;;
47167;SDS011;32931;47.778;17.806;2023-02-15T14:49:11;53.17;;;34.65;;
47167;SDS011;32931;47.778;17.806;2023-02-15T14:54:09;55.28;;;35.38;;
47167;SDS011;32931;47.778;17.806;2023-02-15T14:56:36;57.58;;;35.67;;
47167;SDS011;32931;47.778;17.806;2023-02-15T14:59:14;56.05;;;35.92;;
47167;SDS011;32931;47.778;17.806;2023-02-15T15:01:52;55.33;;;36.53;;
47167;SDS011;32931;47.778;17.806;2023-02-15T15:07:19;56.58;;;35.80;;
47167;SDS011;32931;47.778;17.806;2023-02-15T15:15:11;58.30;;;36.65;;
47167;SDS011;32931;47.778;17.806;2023-02-15T15:17:55;54.58;;;36.47;;
47167;SDS011;32931;47.778;17.806;2023-02-15T15:25:41;65.40;;;36.95;;
47167;SDS011;32931;47.778;17.806;2023-02-15T15:29:23;58.78;;;36.75;;
47167;SDS011;32931;47.778;17.806;2023-02-15T15:53:26;55.63;;;35.35;;
47167;SDS011;32931;47.778;17.806;2023-02-15T15:55:56;60.95;;;37.20;;
47167;SDS011;32931;47.778;17.806;2023-02-15T15:58:26;61.17;;;36.22;;
47167;SDS011;32931;47.778;17.806;2023-02-15T16:00:54;58.33;;;35.60;;
47167;SDS011;32931;47.778;17.806;2023-02-15T16:03:28;59.58;;;36.92;;
47167;SDS011;32931;47.778;17.806;2023-02-15T16:05:55;64.05;;;37.55;;
47167;SDS011;32931;47.778;17.806;2023-02-15T16:08:34;69.38;;;38.08;;
47167;SDS011;32931;47.778;17.806;2023-02-15T16:13:49;54.45;;;34.55;;
47167;SDS011;32931;47.778;17.806;2023-02-15T16:16:23;58.45;;;35.10;;
47167;SDS011;32931;47.778;17.806;2023-02-15T16:18:53;57.03;;;36.72;;
47167;SDS011;32931;47.778;17.806;2023-02-15T16:21:34;62.83;;;35.72;;
47167;SDS011;32931;47.778;17.806;2023-02-15T16:24:24;60.13;;;37.50;;
47167;SDS011;32931;47.778;17.806;2023-02-15T16:29:40;62.78;;;38.95;;
47167;SDS011;32931;47.778;17.806;2023-02-15T16:35:12;62.38;;;36.55;;
47167;SDS011;32931;47.778;17.806;2023-02-15T16:37:43;61.50;;;36.80;;
47167;SDS011;32931;47.778;17.806;2023-02-15T16:40:25;65.15;;;39.00;;
47167;SDS011;32931;47.778;17.806;2023-02-15T16:43:06;72.60;;;40.47;;
47167;SDS011;32931;47.778;17.806;2023-02-15T16:45:42;69.53;;;41.92;;
47167;SDS011;32931;47.778;17.806;2023-02-15T16:48:12;72.30;;;40.83;;
47167;SDS011;32931;47.778;17.806;2023-02-15T16:50:46;66.72;;;40.95;;
47167;SDS011;32931;47.778;17.806;2023-02-15T16:53:18;81.22;;;43.45;;
47167;SDS011;32931;47.778;17.806;2023-02-15T16:55:50;73.15;;;41.92;;
47167;SDS011;32931;47.778;17.806;2023-02-15T16:58:21;71.22;;;41.47;;
47167;SDS011;32931;47.778;17.806;2023-02-15T17:01:13;79.22;;;40.75;;
47167;SDS011;32931;47.778;17.806;2023-02-15T17:03:41;77.90;;;43.13;;
47167;SDS011;32931;47.778;17.806;2023-02-15T17:06:21;69.18;;;41.55;;
47167;SDS011;32931;47.778;17.806;2023-02-15T17:08:49;70.95;;;42.28;;
47167;SDS011;32931;47.778;17.806;2023-02-15T17:16:35;71.20;;;42.95;;
47167;SDS011;32931;47.778;17.806;2023-02-15T17:19:09;68.53;;;42.20;;
47167;SDS011;32931;47.778;17.806;2023-02-15T17:21:48;67.30;;;42.22;;
47167;SDS011;32931;47.778;17.806;2023-02-15T17:24:40;69.57;;;41.38;;
47167;SDS011;32931;47.778;17.806;2023-02-15T17:27:11;77.72;;;43.30;;
47167;SDS011;32931;47.778;17.806;2023-02-15T17:29:39;80.22;;;45.38;;
47167;SDS011;32931;47.778;17.806;2023-02-15T17:32:19;78.35;;;44.08;;
47167;SDS011;32931;47.778;17.806;2023-02-15T17:37:31;72.38;;;43.05;;
47167;SDS011;32931;47.778;17.806;2023-02-15T17:40:21;79.45;;;43.38;;
47167;SDS011;32931;47.778;17.806;2023-02-15T17:42:49;76.03;;;43.78;;
47167;SDS011;32931;47.778;17.806;2023-02-15T17:45:16;75.75;;;43.95;;
47167;SDS011;32931;47.778;17.806;2023-02-15T17:47:42;75.78;;;42.67;;
47167;SDS011;32931;47.778;17.806;2023-02-15T17:50:15;82.05;;;45.40;;
47167;SDS011;32931;47.778;17.806;2023-02-15T17:52:48;85.55;;;44.58;;
47167;SDS011;32931;47.778;17.806;2023-02-15T17:55:16;82.95;;;44.55;;
47167;SDS011;32931;47.778;17.806;2023-02-15T17:58:00;85.35;;;45.42;;
47167;SDS011;32931;47.778;17.806;2023-02-15T18:00:32;83.65;;;45.72;;
47167;SDS011;32931;47.778;17.806;2023-02-15T18:03:20;77.45;;;45.55;;
47167;SDS011;32931;47.778;17.806;2023-02-15T18:06:05;87.72;;;47.70;;
47167;SDS011;32931;47.778;17.806;2023-02-15T18:08:50;88.53;;;47.70;;
47167;SDS011;32931;47.778;17.806;2023-02-15T18:11:34;104.85;;;55.35;;
47167;SDS011;32931;47.778;17.806;2023-02-15T18:14:04;112.53;;;57.75;;
47167;SDS011;32931;47.778;17.806;2023-02-15T18:16:36;102.80;;;57.05;;
47167;SDS011;32931;47.778;17.806;2023-02-15T18:19:14;97.07;;;53.47;;
47167;SDS011;32931;47.778;17.806;2023-02-15T18:21:51;95.05;;;51.30;;
47167;SDS011;32931;47.778;17.806;2023-02-15T18:24:21;87.10;;;50.70;;
47167;SDS011;32931;47.778;17.806;2023-02-15T18:26:49;91.00;;;50.85;;
47167;SDS011;32931;47.778;17.806;2023-02-15T18:29:16;83.97;;;49.70;;
47167;SDS011;32931;47.778;17.806;2023-02-15T18:31:43;88.40;;;49.17;;
47167;SDS011;32931;47.778;17.806;2023-02-15T18:34:19;93.63;;;49.20;;
47167;SDS011;32931;47.778;17.806;2023-02-15T18:36:51;83.15;;;46.33;;